Zoek een voorstelling

Haal het doek maar op

Concertante

Komende voorstellingen in de theaters

Datum Tijd Locatie Theater Kassa Kaarten
1604165400Za 31 okt 2020 18:30 Sneek Theater Sneek 0515-431400 Kaarten reserveren
1604172600Za 31 okt 2020 20:30 Sneek Theater Sneek 0515-431400 Kaarten reserveren
1604237400Zo 01 nov 2020 14:30 Sneek Theater Sneek 0515-431400 Kaarten reserveren
1604601000Do 05 nov 2020 19:30 Uden Theater Markant 0413-256110 Kaarten reserveren
1604608200Do 05 nov 2020 21:30 Uden Theater Markant 0413-256110 Kaarten reserveren
1605291300Vr 13 nov 2020 19:15 Tilburg Theaters Tilburg 013-5432220 Kaarten reserveren
1605297600Vr 13 nov 2020 21:00 Tilburg Theaters Tilburg 013-5432220 Kaarten reserveren
1605445200Zo 15 nov 2020 14:00 Heerenveen Posthuis Theater 0513-619494 Kaarten reserveren
1605453300Zo 15 nov 2020 16:15 Heerenveen Posthuis Theater 0513-619494 Kaarten reserveren
1605724200Wo 18 nov 2020 19:30 Barendrecht Theater Het Kruispunt 0180-615958 Kaarten reserveren
1605895200Vr 20 nov 2020 19:00 Maastricht Theater aan het Vrijthof 043-3505555 Kaarten reserveren
1605904200Vr 20 nov 2020 21:30 Maastricht Theater aan het Vrijthof 043-3505555 Kaarten reserveren
1605981600Za 21 nov 2020 19:00 Raalte Hoftheater 0572-361361 Kaarten reserveren
1605990600Za 21 nov 2020 21:30 Raalte Hoftheater 0572-361361 Kaarten reserveren
1606050000Zo 22 nov 2020 14:00 Amstelveen Schouwburg Amstelveen 020-5475175 Kaarten reserveren
1606059000Zo 22 nov 2020 16:30 Amstelveen Schouwburg Amstelveen 020-5475175 Kaarten reserveren
1606415400Do 26 nov 2020 19:30 Harderwijk Theater Harderwijk 0341-418899 Kaarten reserveren
1606422600Do 26 nov 2020 21:30 Harderwijk Theater Harderwijk 0341-418899 Kaarten reserveren
1606501800Vr 27 nov 2020 19:30 Dronten De Meerpaal 0321-388777 Kaarten reserveren
1606508100Vr 27 nov 2020 21:15 Dronten De Meerpaal 0321-388777 Kaarten reserveren
1606586400Za 28 nov 2020 19:00 Etten-leur Nieuwe Nobelaer 076-5045200 Kaarten reserveren
1606593600Za 28 nov 2020 21:00 Etten-leur Nieuwe Nobelaer 076-5045200 Kaarten reserveren
1606653000Zo 29 nov 2020 13:30 Nijmegen Stadsschouwburg Nijmegen 024-3221100 Kaarten reserveren
1606662000Zo 29 nov 2020 16:00 Nijmegen Stadsschouwburg Nijmegen 024-3221100 Kaarten reserveren
1606933800Wo 02 dec 2020 19:30 Spijkenisse Theater De Stoep 0181-652222 Kaarten reserveren
1607173200Za 05 dec 2020 14:00 Amsterdam DeLaMar Theater 0900–1010202 (lokaal tar) Kaarten reserveren
1607259600Zo 06 dec 2020 14:00 Amsterdam DeLaMar Theater 0900–1010202 (lokaal tar) Kaarten reserveren
1607268600Zo 06 dec 2020 16:30 Amsterdam DeLaMar Theater 0900–1010202 (lokaal tar) Kaarten reserveren
1607536800Wo 09 dec 2020 19:00 Kampen Stadsgehoorzaal 038-3317373 Kaarten reserveren
1607544000Wo 09 dec 2020 21:00 Kampen Stadsgehoorzaal 038-3317373 Kaarten reserveren
1607625000Do 10 dec 2020 19:30 Gouda De Goudse Schouwburg 0182-513750 Kaarten reserveren
1607711400Vr 11 dec 2020 19:30 Veendam Cultuurcentrum Vanberesteyn 0598-317734 Uitverkocht!
1607718600Vr 11 dec 2020 21:30 Veendam Cultuurcentrum Vanberesteyn 0598-317734 Kaarten reserveren
1607868000Zo 13 dec 2020 15:00 Capelle A/d Ijssel Isala Theater 010-4586400 Kaarten reserveren
1608141600Wo 16 dec 2020 19:00 Nieuwegein Stadstheater De Kom 030-6045554 Kaarten reserveren
1608148800Wo 16 dec 2020 21:00 Nieuwegein Stadstheater De Kom 030-6045554 Kaarten reserveren
1608228000Do 17 dec 2020 19:00 Noordwijk De Muze 071-3646226 Kaarten reserveren
1608236100Do 17 dec 2020 21:15 Noordwijk De Muze 071-3646226 Kaarten reserveren
1608315300Vr 18 dec 2020 19:15 Wageningen Theater Junushoff 0317-465500 Kaarten reserveren
1608322500Vr 18 dec 2020 21:15 Wageningen Theater Junushoff 0317-465500 Kaarten reserveren
1608402600Za 19 dec 2020 19:30 Almelo Theaterhotel Almelo 0546-803000 Kaarten reserveren
1608409800Za 19 dec 2020 21:30 Almelo Theaterhotel Almelo 0546-803000 Kaarten reserveren
1610735400Vr 15 jan 2021 19:30 Hardenberg Theater De Voorveghter 0523-280350 Kaarten reserveren
1610742600Vr 15 jan 2021 21:30 Hardenberg Theater De Voorveghter 0523-280350 Kaarten reserveren
1610820900Za 16 jan 2021 19:15 Eindhoven Parktheater Eindhoven 040-2111122 Uitverkocht!
1610892000Zo 17 jan 2021 15:00 Schiedam Theater aan de Schie 010-2467467 Kaarten reserveren

Waar gaat de voorstelling over

In januari 2020 ging in het DeLaMar Theater in Amsterdam de nieuwe origineel Nederlandse musical ‘Haal het doek maar op – van Appelscha tot Zierikzee’ in première.

Een schets over Nederlandse artiesten op de schnabbeltour in de jaren zestig, zeventig en tachtig.
Het spreekt voor zich dat nu in deze concertante versie de nummers het leeuwendeel vormen.

De musical werd door het publiek in het land hogelijk werd gewaardeerd en kreeg mooie recensies.

‘Haal het doek maar op’ is de puur concertante versie, met tophits als:

Ritme van de regen – Rob de Nijs
Spiegelbeeld – Willeke Alberti
Ben ik te min – Armand
Sophietje – Johnny Lion
Pierrot – Bonnie St. Claire
Kom van dat dak af – Peter Koelewijn
Ik ben gelukkig zonder jou – Conny Vandenbos
Brandend zand – Anneke Grönloh
Sammy – Ramses Shaffy
Mijn ideaal – Corry Brokken
Iedere avond – Ronnie Tober
Heel even – Shirley Zwerus
Ploem Ploem Jenka – Trea Dobbs
Land van Maas en Waal – Boudewijn de Groot
Rocking Billy – Ria Valk
Telkens weer – Willeke Alberti
Zet een kaars voor je raam vannacht – Rob de Nijs

Met:
Tony Neef, Mariska van Kolck, David van den Tempel, Julia Berendse, Jordy van Loon en Willemijn van Holt

Meer informatie over deze voorstelling vindt u hier.

Facebook Twitter

Video